Time;durP1;ratioP1;P1;durP2;ratioP2;P2;SDS_P1;SDS_P2;PMS_P1;PMS_P2;Temp;Humidity;BMP_temperature;BMP_pressure;BME280_temperature;BME280_humidity;BME280_pressure;Samples;Min_cycle;Max_cycle;Signal;HPM_P1;HPM_P2
2022/09/16 00:00:50;;;;;;;12.30;4.30;;;;;;;19.62;56.51;96914.34;5044617;28;20436;-70
2022/09/16 00:03:16;;;;;;;4.70;4.00;;;;;;;19.61;56.41;96912.72;5040906;28;20838;-72
2022/09/16 00:05:43;;;;;;;3.83;3.50;;;;;;;19.56;56.70;96913.38;5044450;28;20456;-72
2022/09/16 00:08:09;;;;;;;9.57;4.40;;;;;;;19.55;56.25;96910.91;5045360;28;20433;-70
2022/09/16 00:10:34;;;;;;;3.80;3.30;;;;;;;19.54;56.63;96909.28;5038046;28;20418;-71
2022/09/16 00:13:00;;;;;;;3.90;3.60;;;;;;;19.57;57.02;96903.53;5042025;28;20194;-72
2022/09/16 00:15:26;;;;;;;6.10;3.43;;;;;;;19.56;57.00;96896.59;5035740;28;20215;-72
2022/09/16 00:17:51;;;;;;;4.20;3.33;;;;;;;19.59;57.04;96902.31;5040243;28;20216;-72
2022/09/16 00:20:16;;;;;;;4.90;3.93;;;;;;;19.62;56.70;96903.72;5042806;28;20242;-71
2022/09/16 00:22:42;;;;;;;4.53;4.10;;;;;;;19.64;56.73;96899.00;5043223;28;20611;-71
2022/09/16 00:25:08;;;;;;;4.63;4.23;;;;;;;19.70;56.74;96908.75;5050029;28;20233;-71
2022/09/16 00:27:33;;;;;;;7.30;3.97;;;;;;;19.68;56.47;96904.69;5049713;28;20203;-71
2022/09/16 00:29:58;;;;;;;4.93;4.00;;;;;;;19.64;56.79;96909.63;5046807;28;20602;-72
2022/09/16 00:32:24;;;;;;;5.33;4.13;;;;;;;19.49;57.02;96909.94;5047051;28;20595;-71
2022/09/16 00:34:50;;;;;;;3.83;3.53;;;;;;;19.48;57.45;96908.31;5043583;28;20224;-71
2022/09/16 00:37:15;;;;;;;6.97;4.00;;;;;;;19.51;57.26;96904.44;5038901;28;20208;-72
2022/09/16 00:39:41;;;;;;;7.40;3.73;;;;;;;19.45;56.71;96901.59;5046577;28;20198;-72
2022/09/16 00:42:10;;;;;;;5.00;3.80;;;;;;;19.51;57.14;96912.41;5045938;28;20219;-71
2022/09/16 00:44:57;;;;;;;4.53;4.10;;;;;;;19.55;57.16;96910.91;5049272;28;20179;-72
2022/09/16 00:47:31;;;;;;;7.37;4.30;;;;;;;19.56;56.94;96913.38;5042291;28;20477;-71
2022/09/16 00:50:03;;;;;;;5.50;3.63;;;;;;;19.57;57.09;96911.53;5039601;28;20429;-72
2022/09/16 00:52:29;;;;;;;5.40;3.80;;;;;;;19.60;57.00;96903.91;5034335;28;20426;-72
2022/09/16 00:54:55;;;;;;;4.07;3.40;;;;;;;19.61;56.63;96916.19;5041929;28;20429;-75
2022/09/16 00:57:21;;;;;;;6.00;4.27;;;;;;;19.61;56.83;96915.38;5040615;28;20472;-72
2022/09/16 00:59:50;;;;;;;4.23;3.93;;;;;;;19.62;56.71;96922.31;5041305;28;20266;-71
2022/09/16 01:02:18;;;;;;;3.80;3.40;;;;;;;19.61;56.61;96921.50;5043938;28;20911;-71
2022/09/16 01:04:59;;;;;;;5.13;3.33;;;;;;;19.62;56.81;96917.81;5041947;28;20946;-72
2022/09/16 01:07:39;;;;;;;4.70;4.20;;;;;;;19.56;56.60;96917.84;5030784;28;20453;-71
2022/09/16 01:10:05;;;;;;;11.93;3.53;;;;;;;19.57;56.87;96915.00;5044337;28;20495;-71
2022/09/16 01:12:32;;;;;;;4.37;3.97;;;;;;;19.56;56.59;96917.84;5041866;28;20520;-71
2022/09/16 01:14:58;;;;;;;3.90;3.50;;;;;;;19.53;56.81;96916.47;5045128;28;20433;-72
2022/09/16 01:17:42;;;;;;;6.10;3.60;;;;;;;19.55;57.02;96918.88;5035445;28;20488;-71
2022/09/16 01:20:26;;;;;;;3.87;3.50;;;;;;;19.57;56.97;96919.50;5042152;28;20551;-74
2022/09/16 01:23:30;;;;;;;3.90;3.50;;;;;;;19.58;56.91;96918.47;5037066;28;20426;-71
2022/09/16 01:26:24;;;;;;;7.40;3.63;;;;;;;19.60;56.82;96919.06;5034667;28;20438;-71
2022/09/16 01:29:04;;;;;;;3.90;3.60;;;;;;;19.58;56.74;96910.50;5035075;28;20532;-70
2022/09/16 01:31:42;;;;;;;4.37;3.90;;;;;;;19.54;56.68;96918.09;5034114;28;20461;-71
2022/09/16 01:37:38;;;;;;;5.10;3.77;;;;;;;19.53;56.85;96907.69;5072529;28;20633;-72
2022/09/16 01:40:49;;;;;;;4.23;3.50;;;;;;;19.56;56.64;96913.38;5043144;28;20512;-74
2022/09/16 01:43:20;;;;;;;4.33;3.43;;;;;;;19.57;56.49;96919.50;5044499;28;20448;-71
2022/09/16 01:45:59;;;;;;;4.13;3.30;;;;;;;19.54;56.33;96917.25;5045378;28;20422;-72
2022/09/16 01:48:33;;;;;;;5.57;3.90;;;;;;;19.54;56.62;96920.75;5033769;28;21036;-72
2022/09/16 01:51:05;;;;;;;8.17;4.17;;;;;;;19.52;56.32;96917.50;5040539;28;20529;-72
2022/09/16 01:53:32;;;;;;;8.60;4.00;;;;;;;19.48;56.54;96913.63;5035202;28;20453;-71
2022/09/16 01:56:04;;;;;;;4.03;3.73;;;;;;;19.45;56.65;96911.44;5043028;28;20540;-71
2022/09/16 01:58:51;;;;;;;4.67;4.17;;;;;;;19.41;56.67;96924.31;5034606;28;20500;-71
2022/09/16 02:01:34;;;;;;;7.47;3.60;;;;;;;19.35;56.89;96919.88;5041733;28;20483;-70
2022/09/16 02:04:12;;;;;;;7.60;3.87;;;;;;;19.34;56.91;96918.22;5033433;28;20517;-71
2022/09/16 02:06:39;;;;;;;7.57;4.00;;;;;;;19.32;56.76;96912.31;5037567;28;20457;-71
2022/09/16 02:09:11;;;;;;;4.30;3.87;;;;;;;19.32;56.72;96917.63;5038921;28;20505;-70
2022/09/16 02:11:37;;;;;;;5.50;4.03;;;;;;;19.33;56.83;96921.91;5039910;28;20414;-71
2022/09/16 02:14:11;;;;;;;8.63;4.10;;;;;;;19.32;56.55;96922.94;5033813;28;20651;-71
2022/09/16 02:16:49;;;;;;;5.90;4.00;;;;;;;19.27;56.74;96915.63;5043042;28;20449;-71
2022/09/16 02:19:19;;;;;;;4.10;3.60;;;;;;;19.34;56.67;96915.56;5036692;28;20446;-71
2022/09/16 02:21:46;;;;;;;3.93;3.60;;;;;;;19.34;56.29;96905.75;5040842;28;20421;-72
2022/09/16 02:24:16;;;;;;;6.53;3.60;;;;;;;19.28;56.06;96913.81;5036950;28;20921;-71
2022/09/16 02:27:03;;;;;;;3.70;3.33;;;;;;;19.25;55.63;96912.38;5033508;28;20422;-72
2022/09/16 02:29:36;;;;;;;9.17;3.33;;;;;;;19.23;55.66;96908.31;5035222;28;20433;-71
2022/09/16 02:32:05;;;;;;;4.80;3.17;;;;;;;19.19;55.50;96914.03;5052218;28;20516;-73
2022/09/16 02:34:46;;;;;;;8.60;3.67;;;;;;;19.15;55.48;96909.38;5041547;28;20429;-72
2022/09/16 02:37:22;;;;;;;6.60;3.47;;;;;;;19.20;55.47;96914.88;5058432;28;20462;-71
2022/09/16 02:39:49;;;;;;;3.47;3.13;;;;;;;19.27;55.27;96914.81;5047588;28;20438;-71
2022/09/16 02:42:15;;;;;;;3.83;2.77;;;;;;;19.25;55.07;96915.03;5051428;28;20422;-72
2022/09/16 02:44:41;;;;;;;3.50;3.20;;;;;;;19.21;55.10;96908.53;5044537;28;20788;-72
2022/09/16 02:47:16;;;;;;;3.67;3.33;;;;;;;19.17;55.54;96913.44;5032727;28;20790;-72
2022/09/16 02:49:58;;;;;;;6.73;3.90;;;;;;;19.12;56.22;96910.63;5026854;28;20425;-72
2022/09/16 02:52:35;;;;;;;4.20;3.47;;;;;;;19.04;56.76;96910.88;5023571;28;21057;-72
2022/09/16 02:55:21;;;;;;;4.90;3.90;;;;;;;19.05;57.02;96917.81;5025211;28;20454;-71
2022/09/16 02:57:48;;;;;;;4.80;3.37;;;;;;;19.08;57.27;96914.72;5020007;28;20545;-72
2022/09/16 03:00:13;;;;;;;3.90;3.50;;;;;;;19.10;57.42;96918.00;5025037;28;20436;-72
2022/09/16 03:02:39;;;;;;;6.97;3.50;;;;;;;19.10;57.35;96915.34;5030019;28;21130;-72
2022/09/16 03:05:05;;;;;;;4.37;3.67;;;;;;;19.05;57.27;96907.19;5017865;28;20222;-71
2022/09/16 03:07:30;;;;;;;7.00;3.47;;;;;;;19.05;57.22;96911.69;5027277;28;20206;-71
2022/09/16 03:09:56;;;;;;;10.40;3.70;;;;;;;18.92;58.11;96899.25;5017951;28;20187;-71
2022/09/16 03:12:40;;;;;;;4.43;3.20;;;;;;;18.81;57.74;96898.91;5027437;28;20180;-75
2022/09/16 03:15:26;;;;;;;3.93;3.50;;;;;;;18.90;57.84;96899.47;5017348;28;20176;-71
2022/09/16 03:18:06;;;;;;;13.03;4.20;;;;;;;18.92;57.82;96912.53;5026200;28;21000;-74
2022/09/16 03:21:03;;;;;;;5.03;4.13;;;;;;;18.84;57.77;96911.78;5025379;28;20452;-72
2022/09/16 03:23:45;;;;;;;12.90;3.90;;;;;;;18.86;57.96;96903.59;4999189;28;20431;-70
2022/09/16 03:26:20;;;;;;;3.87;3.47;;;;;;;18.88;57.67;96906.84;5016218;28;20426;-71
2022/09/16 03:29:12;;;;;;;3.40;3.10;;;;;;;18.92;57.72;96899.25;5026915;28;20534;-71
2022/09/16 03:31:49;;;;;;;13.17;3.40;;;;;;;18.93;57.45;96893.75;5018191;28;20491;-71
2022/09/16 03:34:31;;;;;;;7.83;3.93;;;;;;;18.95;57.38;96893.56;5025045;28;20435;-72
2022/09/16 03:37:06;;;;;;;9.40;3.60;;;;;;;18.90;57.38;96891.53;5026024;28;20468;-71
2022/09/16 03:39:33;;;;;;;4.70;3.43;;;;;;;18.89;57.98;96897.84;5012354;28;20446;-71
2022/09/16 03:42:03;;;;;;;3.60;3.13;;;;;;;18.95;58.15;96891.75;5016390;28;20526;-71
2022/09/16 03:44:38;;;;;;;6.07;3.60;;;;;;;19.02;58.21;96897.00;5041852;28;20424;-73
2022/09/16 03:47:04;;;;;;;3.90;3.10;;;;;;;19.04;58.08;96902.91;5039343;28;20949;-73
2022/09/16 03:49:29;;;;;;;5.57;3.80;;;;;;;19.01;58.11;96892.72;5034372;28;20438;-72
2022/09/16 03:51:55;;;;;;;9.03;3.40;;;;;;;18.94;57.99;96894.59;5041463;28;20458;-71
2022/09/16 03:54:21;;;;;;;6.07;3.40;;;;;;;18.83;58.41;96894.22;5048977;28;20195;-71
2022/09/16 03:56:47;;;;;;;5.83;3.33;;;;;;;18.83;58.45;96888.91;5041117;28;20458;-71
2022/09/16 03:59:12;;;;;;;4.07;3.67;;;;;;;18.82;58.38;96884.63;5035552;28;20451;-71
2022/09/16 04:01:38;;;;;;;12.00;3.50;;;;;;;18.83;58.78;96891.56;5040809;28;20595;-74
2022/09/16 04:04:03;;;;;;;5.00;3.30;;;;;;;18.86;58.49;96893.78;5033739;28;20258;-71
2022/09/16 04:06:29;;;;;;;6.03;3.67;;;;;;;18.87;58.62;96884.81;5038329;28;20179;-72
2022/09/16 04:08:59;;;;;;;5.70;3.43;;;;;;;18.87;58.15;96889.28;5034409;28;20254;-73
2022/09/16 04:11:28;;;;;;;4.80;3.07;;;;;;;18.82;58.22;96884.63;5036314;28;20266;-71
2022/09/16 04:13:54;;;;;;;8.17;2.90;;;;;;;18.76;58.60;96882.00;5042248;28;20963;-72
2022/09/16 04:16:20;;;;;;;5.10;2.90;;;;;;;18.77;58.61;96886.28;5041321;28;20489;-71
2022/09/16 04:18:46;;;;;;;4.73;3.23;;;;;;;18.74;58.48;96876.91;5045554;28;20211;-71
2022/09/16 04:21:11;;;;;;;6.13;3.43;;;;;;;18.74;58.44;96874.25;5040225;28;20433;-73
2022/09/16 04:23:37;;;;;;;2.93;2.73;;;;;;;18.71;58.52;96880.78;5039059;28;20229;-71
2022/09/16 04:26:02;;;;;;;4.67;2.97;;;;;;;18.71;58.62;96872.03;5041001;28;20331;-71
2022/09/16 04:28:29;;;;;;;5.20;3.63;;;;;;;18.70;58.50;96870.38;5048362;28;20203;-73
2022/09/16 04:31:05;;;;;;;4.07;2.80;;;;;;;18.69;58.70;96863.44;5042548;28;20566;-70
2022/09/16 04:33:33;;;;;;;5.17;3.27;;;;;;;18.71;58.64;96864.84;5042888;28;20482;-71
2022/09/16 04:36:07;;;;;;;3.70;3.27;;;;;;;18.75;58.75;96859.97;5043478;28;20461;-71
2022/09/16 04:38:33;;;;;;;9.73;3.70;;;;;;;18.78;58.73;96864.81;5034636;28;20536;-72
2022/09/16 04:41:00;;;;;;;4.27;3.33;;;;;;;18.72;58.70;96863.84;5033996;28;20443;-73
2022/09/16 04:43:26;;;;;;;3.73;3.43;;;;;;;18.72;58.79;96855.06;5046668;28;20840;-71
2022/09/16 04:45:51;;;;;;;5.77;3.20;;;;;;;18.75;58.99;96862.63;5036604;28;20431;-71
2022/09/16 04:48:18;;;;;;;6.03;3.40;;;;;;;18.80;58.96;96861.97;5029001;28;20560;-72
2022/09/16 04:50:43;;;;;;;4.53;3.03;;;;;;;18.71;59.05;96864.06;5035921;28;20241;-71
2022/09/16 04:53:08;;;;;;;5.67;3.20;;;;;;;18.69;59.11;96861.63;5041753;28;20418;-71
2022/09/16 04:55:34;;;;;;;5.63;3.13;;;;;;;18.69;59.14;96864.28;5045737;28;20298;-72
2022/09/16 04:58:00;;;;;;;8.33;3.37;;;;;;;18.69;58.97;96871.41;5031990;28;20239;-72
2022/09/16 05:00:25;;;;;;;10.03;3.70;;;;;;;18.69;59.29;96882.03;5046593;28;20187;-72
2022/09/16 05:02:53;;;;;;;10.53;3.27;;;;;;;18.71;59.21;96874.69;5045228;28;20187;-71
2022/09/16 05:05:19;;;;;;;5.13;3.43;;;;;;;18.68;59.35;96875.94;5040237;28;20187;-70
2022/09/16 05:07:44;;;;;;;11.10;3.17;;;;;;;18.65;59.13;96870.22;5036508;28;20441;-71
2022/09/16 05:10:10;;;;;;;3.40;2.80;;;;;;;18.67;59.29;96870.81;5034330;28;20214;-72
2022/09/16 05:12:35;;;;;;;7.33;2.90;;;;;;;18.75;59.25;96886.50;5035114;28;20642;-70
2022/09/16 05:15:01;;;;;;;4.93;3.27;;;;;;;18.76;58.94;96887.31;5044266;28;20191;-71
2022/09/16 05:17:28;;;;;;;6.23;2.63;;;;;;;18.79;58.94;96887.69;5032649;28;20209;-71
2022/09/16 05:19:54;;;;;;;5.17;3.07;;;;;;;18.73;58.83;96878.75;5045202;28;20186;-71
2022/09/16 05:22:19;;;;;;;4.10;3.27;;;;;;;18.75;59.17;96875.06;5039611;28;20434;-71
2022/09/16 05:24:45;;;;;;;4.80;3.13;;;;;;;18.78;59.05;96880.75;5035994;28;20184;-71
2022/09/16 05:27:10;;;;;;;7.23;3.87;;;;;;;18.76;59.19;96882.00;5038566;28;20638;-72
2022/09/16 05:29:36;;;;;;;5.90;3.50;;;;;;;18.77;59.58;96884.47;5046832;28;20709;-71
2022/09/16 05:32:01;;;;;;;5.47;2.93;;;;;;;18.78;59.29;96888.72;5041994;28;20194;-74
2022/09/16 05:34:27;;;;;;;4.63;2.90;;;;;;;18.78;59.27;96882.59;5036054;28;20247;-71
2022/09/16 05:36:54;;;;;;;4.80;2.80;;;;;;;18.76;59.49;96872.22;5040224;28;20211;-71
2022/09/16 05:39:20;;;;;;;7.40;2.83;;;;;;;18.72;59.47;96871.00;5034203;28;20517;-73
2022/09/16 05:41:46;;;;;;;4.30;3.00;;;;;;;18.66;59.59;96877.97;5031031;28;20430;-70
2022/09/16 05:44:12;;;;;;;4.83;3.20;;;;;;;18.67;59.67;96886.72;5046879;28;20229;-70
2022/09/16 05:46:39;;;;;;;5.10;3.00;;;;;;;18.69;59.82;96888.16;5039897;28;20785;-69
2022/09/16 05:49:05;;;;;;;5.10;3.00;;;;;;;18.64;59.63;96884.53;5044205;28;20908;-71
2022/09/16 05:51:30;;;;;;;7.63;3.57;;;;;;;18.62;59.75;96892.69;5043231;28;20516;-72
2022/09/16 05:53:57;;;;;;;4.20;3.17;;;;;;;18.64;59.80;96895.13;5043032;28;20270;-73
2022/09/16 05:56:25;;;;;;;3.93;3.27;;;;;;;18.65;59.68;96891.47;5032315;28;20295;-72
2022/09/16 05:58:55;;;;;;;4.70;2.63;;;;;;;18.66;59.80;96885.09;5043377;28;20872;-70
2022/09/16 06:01:26;;;;;;;6.50;3.13;;;;;;;18.71;59.62;96885.28;5047791;28;20978;-70
2022/09/16 06:03:53;;;;;;;4.17;3.10;;;;;;;18.73;59.44;96888.56;5021006;28;20426;-71
2022/09/16 06:06:35;;;;;;;6.73;2.90;;;;;;;18.76;59.55;96895.28;5046419;28;20820;-70
2022/09/16 06:09:20;;;;;;;5.80;3.17;;;;;;;18.79;59.36;96893.00;5035811;28;21023;-71
2022/09/16 06:11:48;;;;;;;5.03;3.27;;;;;;;18.83;59.03;96899.53;5037355;28;20517;-71
2022/09/16 06:14:14;;;;;;;4.67;3.07;;;;;;;18.85;58.82;96901.94;5037076;28;20466;-72
2022/09/16 06:16:40;;;;;;;3.97;3.00;;;;;;;18.86;58.72;96899.09;5014689;28;20550;-73
2022/09/16 06:19:09;;;;;;;5.10;3.10;;;;;;;18.82;58.45;96897.09;5041261;28;20817;-71
2022/09/16 06:21:36;;;;;;;9.70;3.77;;;;;;;18.65;58.15;96902.88;5034614;28;20908;-72
2022/09/16 06:24:02;;;;;;;3.27;2.80;;;;;;;18.55;58.55;96903.31;5045153;28;20433;-71
2022/09/16 06:26:28;;;;;;;3.70;2.57;;;;;;;18.50;58.40;96902.31;5023472;28;20429;-71
2022/09/16 06:28:54;;;;;;;3.23;2.73;;;;;;;18.49;58.21;96900.69;5022247;28;20435;-72
2022/09/16 06:31:24;;;;;;;10.93;3.47;;;;;;;18.51;57.85;96896.81;5026399;28;20188;-73
2022/09/16 06:33:50;;;;;;;12.20;3.50;;;;;;;18.38;58.01;96899.53;5040387;28;20267;-71
2022/09/16 06:36:21;;;;;;;5.30;3.13;;;;;;;18.16;59.17;96896.31;5028247;28;20558;-73
2022/09/16 06:38:47;;;;;;;6.80;3.03;;;;;;;18.18;59.23;96896.94;5036646;28;20215;-70
2022/09/16 06:41:14;;;;;;;7.27;4.00;;;;;;;17.99;59.83;96902.06;5020893;28;20454;-69
2022/09/16 06:43:39;;;;;;;7.53;3.97;;;;;;;17.83;59.90;96900.63;5030790;28;20187;-70
2022/09/16 06:46:15;;;;;;;4.87;3.80;;;;;;;17.76;60.29;96903.28;5024593;28;20429;-71
2022/09/16 06:48:42;;;;;;;5.70;3.50;;;;;;;17.75;60.81;96911.47;5024944;28;20216;-71
2022/09/16 06:51:13;;;;;;;4.33;3.80;;;;;;;17.74;60.80;96907.97;5044547;28;20426;-70
2022/09/16 06:53:39;;;;;;;8.50;3.63;;;;;;;17.73;61.20;96906.34;5037128;28;20456;-71
2022/09/16 06:56:07;;;;;;;6.50;4.00;;;;;;;17.70;61.52;96908.59;5037720;28;20910;-71
2022/09/16 06:58:34;;;;;;;7.83;5.00;;;;;;;17.72;61.61;96909.22;5039514;28;20199;-72
2022/09/16 07:01:11;;;;;;;7.10;4.50;;;;;;;17.60;62.33;96901.88;5047679;28;20417;-71
2022/09/16 07:03:42;;;;;;;9.90;4.50;;;;;;;17.61;62.67;96905.34;5028520;28;20422;-71
2022/09/16 07:06:08;;;;;;;10.57;5.00;;;;;;;17.59;61.97;96915.31;5017259;28;20451;-71
2022/09/16 07:08:35;;;;;;;9.53;4.30;;;;;;;17.58;61.99;96914.53;5020318;28;20970;-71
2022/09/16 07:11:03;;;;;;;12.67;4.30;;;;;;;17.61;61.60;96914.13;5020277;28;20427;-69
2022/09/16 07:13:28;;;;;;;5.30;3.50;;;;;;;17.65;61.98;96923.28;5018260;28;20431;-69
2022/09/16 07:15:54;;;;;;;8.47;3.90;;;;;;;17.63;62.12;96917.38;5013716;28;20458;-71
2022/09/16 07:18:19;;;;;;;6.73;3.97;;;;;;;17.64;62.26;96921.63;5015163;28;20308;-72
2022/09/16 07:20:45;;;;;;;6.30;4.43;;;;;;;17.62;62.23;96925.53;5026394;28;20191;-71
2022/09/16 07:23:10;;;;;;;6.30;3.83;;;;;;;17.64;62.63;96923.47;5018663;28;20723;-71
2022/09/16 07:25:36;;;;;;;5.90;4.00;;;;;;;17.66;63.03;96927.56;5017107;28;20199;-71
2022/09/16 07:28:02;;;;;;;10.60;4.50;;;;;;;17.68;62.61;96927.38;5014506;28;20239;-71
2022/09/16 07:30:29;;;;;;;6.17;4.17;;;;;;;17.66;62.75;96922.25;5027003;28;20253;-70
2022/09/16 07:32:54;;;;;;;10.40;4.00;;;;;;;17.59;62.70;96921.44;5018242;28;20222;-69
2022/09/16 07:35:20;;;;;;;7.43;4.40;;;;;;;17.54;62.88;96921.22;5017161;28;20515;-70
2022/09/16 07:37:45;;;;;;;6.00;4.10;;;;;;;17.54;63.25;96928.38;5018995;28;20454;-70
2022/09/16 07:40:12;;;;;;;8.67;4.30;;;;;;;17.51;63.36;96929.63;5018497;28;20215;-70
2022/09/16 07:42:37;;;;;;;4.53;3.87;;;;;;;17.44;62.86;96939.38;5018484;28;20251;-70
2022/09/16 07:45:03;;;;;;;5.33;3.43;;;;;;;17.31;63.35;96934.88;5015506;28;20419;-69
2022/09/16 07:47:29;;;;;;;6.80;3.47;;;;;;;17.35;63.74;96928.97;5012859;28;20730;-69
2022/09/16 07:49:55;;;;;;;10.43;4.13;;;;;;;17.41;63.76;96929.16;5014455;28;20424;-70
2022/09/16 07:52:22;;;;;;;6.73;4.20;;;;;;;17.40;63.82;96944.25;5017472;28;20272;-70
2022/09/16 07:54:49;;;;;;;5.27;4.13;;;;;;;17.45;63.52;96952.41;5015207;28;20184;-69
2022/09/16 07:57:15;;;;;;;5.40;3.97;;;;;;;17.46;63.44;96945.28;5025256;28;20455;-70
2022/09/16 07:59:40;;;;;;;4.57;3.67;;;;;;;17.48;63.74;96956.50;5026089;28;20954;-71
2022/09/16 08:02:05;;;;;;;4.20;3.80;;;;;;;17.48;63.43;96954.66;5020962;28;20216;-69
2022/09/16 08:04:31;;;;;;;11.40;4.30;;;;;;;17.42;63.50;96947.53;5013644;28;20250;-70
2022/09/16 08:06:56;;;;;;;4.90;4.40;;;;;;;17.45;63.85;96946.31;5019805;28;20559;-71
2022/09/16 08:09:22;;;;;;;4.77;4.23;;;;;;;17.49;64.00;96942.25;5016188;28;20204;-70
2022/09/16 08:11:47;;;;;;;6.07;4.70;;;;;;;17.57;63.95;96943.88;5015275;28;20188;-71
2022/09/16 08:14:13;;;;;;;18.17;7.80;;;;;;;17.64;64.26;96945.47;5018697;28;20199;-69
2022/09/16 08:16:38;;;;;;;12.00;7.10;;;;;;;17.73;64.02;96950.59;5033309;28;20204;-69
2022/09/16 08:19:04;;;;;;;11.83;8.07;;;;;;;17.78;63.56;96946.31;5032142;28;20296;-72
2022/09/16 08:21:29;;;;;;;10.13;6.93;;;;;;;17.77;63.56;96949.16;5017125;28;20638;-69
2022/09/16 08:23:55;;;;;;;7.97;5.43;;;;;;;17.70;62.91;96945.69;5038567;28;20307;-70
2022/09/16 08:26:22;;;;;;;17.57;12.20;;;;;;;17.67;63.72;96944.28;5028750;28;20556;-70
2022/09/16 08:28:48;;;;;;;19.20;12.53;;;;;;;17.78;63.63;96945.47;5025235;28;20435;-69
2022/09/16 08:31:14;;;;;;;30.43;23.00;;;;;;;17.86;63.47;96950.59;5031325;28;20550;-69
2022/09/16 08:33:40;;;;;;;24.83;18.97;;;;;;;17.87;63.05;96954.88;5035000;28;20915;-71
2022/09/16 08:36:13;;;;;;;16.90;10.73;;;;;;;17.81;62.01;96963.63;5033282;28;20459;-70
2022/09/16 08:38:39;;;;;;;18.03;12.50;;;;;;;17.81;62.10;96966.28;5025065;28;20445;-71
2022/09/16 08:41:19;;;;;;;12.30;9.33;;;;;;;17.81;62.57;96971.59;5039292;28;20932;-71
2022/09/16 08:44:30;;;;;;;15.10;11.23;;;;;;;17.87;62.96;96973.44;5019130;28;20188;-70
2022/09/16 08:46:58;;;;;;;20.73;14.70;;;;;;;17.89;63.21;96967.91;5017671;28;20515;-68
2022/09/16 08:49:37;;;;;;;22.53;17.50;;;;;;;17.87;63.25;96973.44;5010189;28;20908;-70
2022/09/16 08:52:17;;;;;;;18.10;14.83;;;;;;;17.91;62.82;96974.63;5014061;28;20427;-70
2022/09/16 08:54:50;;;;;;;8.87;5.37;;;;;;;17.87;62.54;96980.56;5027205;28;20928;-70
2022/09/16 08:57:21;;;;;;;11.00;8.73;;;;;;;17.88;62.76;96980.38;5024161;28;20455;-69
2022/09/16 08:59:49;;;;;;;16.60;10.47;;;;;;;17.96;63.02;96979.31;5039966;28;20516;-69
2022/09/16 09:02:41;;;;;;;11.77;9.50;;;;;;;17.92;63.01;96980.78;5021320;28;20513;-71
2022/09/16 09:05:35;;;;;;;10.90;9.30;;;;;;;17.94;62.98;96979.53;5028120;28;20441;-72
2022/09/16 09:08:08;;;;;;;24.53;19.03;;;;;;;17.93;62.50;96980.56;5032106;28;20469;-71
2022/09/16 09:10:48;;;;;;;20.10;15.63;;;;;;;17.98;62.35;96979.97;5026697;28;20417;-70
2022/09/16 09:13:20;;;;;;;12.43;7.00;;;;;;;17.87;62.12;96970.78;5025284;28;20433;-70
2022/09/16 09:16:19;;;;;;;7.40;5.73;;;;;;;17.91;61.21;96979.94;5026903;28;21014;-70
2022/09/16 09:18:55;;;;;;;4.90;3.30;;;;;;;17.90;61.01;96974.84;5026585;28;20945;-70
2022/09/16 09:21:59;;;;;;;13.93;5.77;;;;;;;17.84;61.09;96973.84;5035909;28;20418;-70
2022/09/16 09:24:35;;;;;;;8.73;3.70;;;;;;;17.84;60.78;96975.66;5025995;28;20460;-70
2022/09/16 09:27:13;;;;;;;7.00;4.43;;;;;;;17.81;60.73;96964.47;5025796;28;20515;-70
2022/09/16 09:30:02;;;;;;;11.60;4.40;;;;;;;17.86;61.30;96966.50;5021915;28;20446;-71
2022/09/16 09:32:54;;;;;;;8.20;6.00;;;;;;;17.89;61.26;96965.25;5041661;28;20483;-70
2022/09/16 09:35:52;;;;;;;4.67;3.50;;;;;;;17.84;61.62;96965.06;5029450;28;20474;-69
2022/09/16 09:38:23;;;;;;;5.53;3.80;;;;;;;17.89;61.09;96970.56;5042808;28;20446;-71
2022/09/16 09:40:53;;;;;;;5.47;3.60;;;;;;;17.88;60.38;96961.81;5044134;28;20433;-70
2022/09/16 09:43:32;;;;;;;5.40;2.93;;;;;;;17.90;60.14;96959.75;5034171;28;20418;-71
2022/09/16 09:46:05;;;;;;;4.70;3.37;;;;;;;17.89;59.49;96963.44;5019901;28;20477;-70
2022/09/16 09:48:43;;;;;;;5.13;4.50;;;;;;;17.91;59.73;96960.59;5028359;28;20452;-70
2022/09/16 09:51:32;;;;;;;4.47;3.63;;;;;;;17.90;60.06;96958.94;5016852;28;20511;-70
2022/09/16 09:54:04;;;;;;;3.30;2.90;;;;;;;17.93;60.29;96962.00;5032315;28;20511;-71
2022/09/16 09:56:33;;;;;;;5.70;3.87;;;;;;;17.91;60.35;96960.59;5015154;28;20837;-69
2022/09/16 09:59:12;;;;;;;5.07;3.70;;;;;;;17.86;60.24;96963.84;5041361;28;20472;-70
2022/09/16 10:01:37;;;;;;;6.27;3.50;;;;;;;17.90;59.89;96959.75;5031356;28;20433;-71
2022/09/16 10:04:11;;;;;;;4.50;3.30;;;;;;;17.92;59.56;96963.00;5016204;28;21193;-71
2022/09/16 10:06:37;;;;;;;5.13;3.90;;;;;;;17.94;59.96;96968.94;5028008;28;20577;-71
2022/09/16 10:09:03;;;;;;;5.83;3.10;;;;;;;17.87;60.38;96976.09;5025388;28;20497;-70
2022/09/16 10:11:30;;;;;;;3.77;3.27;;;;;;;17.88;60.59;96961.81;5043228;28;20183;-70
2022/09/16 10:13:58;;;;;;;5.60;3.60;;;;;;;17.85;60.71;96972.00;5024586;28;20184;-70
2022/09/16 10:16:28;;;;;;;6.10;3.70;;;;;;;17.91;61.03;96976.50;5046755;28;20458;-71
2022/09/16 10:18:57;;;;;;;7.87;3.80;;;;;;;17.89;61.21;96976.69;5030303;28;21003;-70
2022/09/16 10:21:24;;;;;;;7.93;3.60;;;;;;;17.94;61.58;96971.59;5016452;28;20423;-72
2022/09/16 10:23:54;;;;;;;6.43;3.50;;;;;;;18.00;61.71;96969.97;5028900;28;20439;-71
2022/09/16 10:26:23;;;;;;;5.17;3.07;;;;;;;17.95;61.12;96962.63;5017575;28;20431;-73
2022/09/16 10:29:18;;;;;;;3.50;3.17;;;;;;;17.95;61.10;96959.97;5034425;28;20485;-70
2022/09/16 10:31:44;;;;;;;4.87;3.53;;;;;;;17.95;60.29;96959.97;5032035;28;20897;-71
2022/09/16 10:34:31;;;;;;;6.20;3.57;;;;;;;17.98;60.94;96957.97;5034387;28;20462;-70
2022/09/16 10:37:04;;;;;;;7.30;2.97;;;;;;;18.11;60.65;96955.28;5037141;28;20214;-71
2022/09/16 10:39:31;;;;;;;7.37;2.90;;;;;;;18.15;59.51;96955.69;5036859;28;20475;-71
2022/09/16 10:41:56;;;;;;;3.03;2.47;;;;;;;18.15;59.69;96951.19;5030828;28;20454;-71
2022/09/16 10:44:30;;;;;;;4.13;2.97;;;;;;;18.14;59.09;96962.84;5031860;28;20825;-70
2022/09/16 10:46:58;;;;;;;4.50;3.40;;;;;;;18.14;58.62;96960.19;5031871;28;20181;-70
2022/09/16 10:49:43;;;;;;;6.43;3.00;;;;;;;18.10;58.14;96965.06;5036654;28;20453;-70
2022/09/16 10:52:24;;;;;;;2.70;2.50;;;;;;;18.09;58.46;96960.78;5016658;28;20427;-71
2022/09/16 10:54:49;;;;;;;2.70;2.50;;;;;;;18.10;58.90;96969.56;5038256;28;20524;-70
2022/09/16 10:57:30;;;;;;;2.67;2.40;;;;;;;18.09;58.71;96973.25;5019058;28;20462;-69
2022/09/16 11:00:22;;;;;;;3.13;2.90;;;;;;;18.08;58.62;96982.22;5021661;28;20192;-69
2022/09/16 11:03:03;;;;;;;4.03;2.83;;;;;;;18.06;57.92;96971.00;5022887;28;20458;-71
2022/09/16 11:05:43;;;;;;;7.30;2.70;;;;;;;18.06;57.96;96978.94;5029963;28;20413;-70
2022/09/16 11:08:34;;;;;;;4.40;2.63;;;;;;;18.03;57.20;96974.03;5028640;28;20455;-71
2022/09/16 11:11:10;;;;;;;4.67;2.30;;;;;;;18.05;57.36;96979.97;5033366;28;20957;-70
2022/09/16 11:13:41;;;;;;;5.03;2.53;;;;;;;18.00;57.98;96982.44;5021493;28;20422;-69
2022/09/16 11:16:06;;;;;;;6.83;3.13;;;;;;;18.05;58.22;96988.75;5014349;28;20466;-70
2022/09/16 11:18:44;;;;;;;5.87;2.57;;;;;;;18.11;58.17;96992.41;5017048;28;20803;-69
2022/09/16 11:21:54;;;;;;;3.73;2.70;;;;;;;18.14;58.43;96986.72;5014364;28;20191;-69
2022/09/16 11:24:29;;;;;;;5.13;2.80;;;;;;;18.13;58.88;96986.91;5000996;28;20412;-71
2022/09/16 11:27:06;;;;;;;3.77;3.40;;;;;;;18.08;59.62;96996.28;5020748;28;20431;-68
2022/09/16 11:29:50;;;;;;;7.23;3.90;;;;;;;18.11;59.38;96993.22;5021482;28;20442;-70
2022/09/16 11:32:54;;;;;;;9.50;5.30;;;;;;;18.15;59.77;96993.63;5022195;28;20506;-70
2022/09/16 11:35:38;;;;;;;4.17;3.60;;;;;;;18.14;58.03;96985.88;5023115;28;20428;-69
2022/09/16 11:38:12;;;;;;;11.40;4.50;;;;;;;18.10;57.53;96985.47;5019763;28;20482;-72
2022/09/16 11:40:47;;;;;;;3.83;2.63;;;;;;;18.07;56.63;96981.41;5021693;28;20448;-71
2022/09/16 11:43:27;;;;;;;4.73;2.87;;;;;;;18.07;56.50;96988.53;5024334;28;20426;-70
2022/09/16 11:45:57;;;;;;;5.10;2.90;;;;;;;18.15;56.42;96990.97;5020567;28;20505;-71
2022/09/16 11:49:09;;;;;;;8.87;4.30;;;;;;;18.25;56.52;96988.72;5020051;28;20446;-72
2022/09/16 11:52:10;;;;;;;6.30;3.87;;;;;;;18.38;55.84;96976.47;5006796;28;20459;-72
2022/09/16 11:54:56;;;;;;;3.80;2.37;;;;;;;18.44;55.41;96991.53;4981773;28;20457;-71
2022/09/16 11:57:28;;;;;;;3.50;2.40;;;;;;;18.44;54.17;96983.56;5018816;28;20459;-71